Time;durP1;ratioP1;P1;durP2;ratioP2;P2;SDS_P1;SDS_P2;PMS_P1;PMS_P2;Temp;Humidity;BMP_temperature;BMP_pressure;BME280_temperature;BME280_humidity;BME280_pressure;Samples;Min_cycle;Max_cycle;Signal;HPM_P1;HPM_P2
2024/01/05 00:07:23;;;;;;;18.30;6.00;;;;;;;0.15;83.28;99197.06;681700;1275;140359;-79
2024/01/05 00:22:26;;;;;;;11.40;7.50;;;;;;;0.23;82.96;99206.71;681713;1265;139006;-78
2024/01/05 00:37:30;;;;;;;25.90;10.30;;;;;;;0.33;82.52;99249.23;681850;1265;139034;-79
2024/01/05 00:52:34;;;;;;;9.80;5.70;;;;;;;0.21;82.12;99263.43;681653;1265;139267;-78
2024/01/05 01:07:39;;;;;;;9.50;4.30;;;;;;;0.09;82.08;99283.25;681833;1272;139941;-78
2024/01/05 01:22:43;;;;;;;8.10;4.40;;;;;;;0.07;82.36;99306.90;681702;1265;139650;-78
2024/01/05 01:37:48;;;;;;;12.40;5.30;;;;;;;0.15;82.47;99316.23;681809;1267;138775;-79
2024/01/05 01:52:52;;;;;;;8.10;4.10;;;;;;;0.20;82.74;99334.52;681768;1265;140239;-78
2024/01/05 02:07:56;;;;;;;11.10;4.40;;;;;;;0.23;83.48;99354.77;681945;1277;140727;-78
2024/01/05 02:23:03;;;;;;;6.60;3.80;;;;;;;0.26;83.73;99367.34;681862;1263;139745;-78
2024/01/05 02:38:08;;;;;;;8.70;3.90;;;;;;;0.25;83.57;99366.76;681906;1261;139789;-78
2024/01/05 02:53:12;;;;;;;7.60;4.60;;;;;;;0.20;83.56;99383.88;681725;1261;138987;-78
2024/01/05 03:08:16;;;;;;;5.40;2.80;;;;;;;0.25;83.54;99395.94;681907;1263;140410;-78
2024/01/05 03:23:19;;;;;;;7.90;4.20;;;;;;;0.25;83.36;99413.66;681839;1260;140440;-78
2024/01/05 03:38:23;;;;;;;4.40;2.90;;;;;;;0.23;83.17;99416.19;681844;1260;140337;-79
2024/01/05 03:53:27;;;;;;;8.10;2.70;;;;;;;0.11;82.35;99423.60;681852;1260;139318;-78
2024/01/05 04:08:30;;;;;;;3.80;2.20;;;;;;;0.09;81.84;99436.96;682008;1262;139218;-78
2024/01/05 04:23:33;;;;;;;7.70;2.70;;;;;;;0.17;82.00;99439.77;681862;1261;139415;-78
2024/01/05 04:38:38;;;;;;;15.40;6.30;;;;;;;0.13;81.76;99454.30;681800;1265;139217;-78
2024/01/05 04:53:41;;;;;;;6.20;3.90;;;;;;;0.10;81.77;99474.02;681891;1262;139507;-78
2024/01/05 05:08:45;;;;;;;7.20;2.80;;;;;;;0.03;81.79;99485.77;682042;1262;139043;-78
2024/01/05 05:23:48;;;;;;;7.20;2.80;;;;;;;0.20;81.31;99497.55;681822;1260;140025;-78
2024/01/05 05:38:54;;;;;;;5.80;3.10;;;;;;;0.22;81.23;99521.20;681728;1261;138907;-78
2024/01/05 05:53:57;;;;;;;30.00;11.20;;;;;;;0.32;80.87;99527.98;681750;1262;138818;-78
2024/01/05 06:09:01;;;;;;;20.70;7.40;;;;;;;0.39;81.13;99550.98;681948;1262;139893;-79
2024/01/05 06:24:07;;;;;;;51.40;16.60;;;;;;;0.31;81.01;99574.85;681890;1260;139635;-78
2024/01/05 06:39:11;;;;;;;30.50;12.90;;;;;;;0.27;80.93;99602.61;681675;1262;140592;-78
2024/01/05 06:54:14;;;;;;;11.60;6.50;;;;;;;0.09;81.02;99611.46;681736;1262;140246;-79
2024/01/05 07:09:18;;;;;;;10.60;4.90;;;;;;;-0.08;80.99;99620.16;681721;1261;139942;-79
2024/01/05 07:24:22;;;;;;;27.60;13.10;;;;;;;-0.12;80.63;99624.17;681832;1265;139188;-80
2024/01/05 07:39:26;;;;;;;44.20;17.00;;;;;;;0.02;80.50;99634.40;681735;1263;140654;-80
2024/01/05 07:54:31;;;;;;;27.00;12.50;;;;;;;-0.00;80.08;99644.66;681972;1263;140351;-80
2024/01/05 08:09:35;;;;;;;17.40;6.50;;;;;;;0.03;80.06;99649.83;681798;1261;139260;-80
2024/01/05 08:24:40;;;;;;;35.50;13.90;;;;;;;0.03;80.33;99657.88;681895;1265;139143;-81
2024/01/05 08:39:44;;;;;;;51.80;29.10;;;;;;;0.76;80.56;99685.19;681604;1265;139587;-81
2024/01/05 08:54:49;;;;;;;45.90;16.50;;;;;;;0.78;79.49;99700.20;681860;1262;139353;-81
2024/01/05 09:09:53;;;;;;;38.00;22.00;;;;;;;1.21;79.10;99721.74;681829;1262;140047;-81
2024/01/05 09:24:56;;;;;;;28.60;18.80;;;;;;;1.84;79.72;99722.49;681706;1265;173600;-80
2024/01/05 09:40:01;;;;;;;14.90;8.50;;;;;;;2.29;79.05;99735.30;681672;1262;140440;-81
2024/01/05 09:55:06;;;;;;;36.50;15.30;;;;;;;2.24;78.06;99749.77;681899;1266;139319;-81
2024/01/05 10:10:12;;;;;;;31.40;11.20;;;;;;;2.16;77.18;99752.96;681800;1265;140828;-81
2024/01/05 10:25:21;;;;;;;28.70;11.60;;;;;;;1.95;76.13;99767.23;681739;1260;139967;-80
2024/01/05 10:40:26;;;;;;;11.40;7.30;;;;;;;2.15;76.11;99765.16;681780;1262;141004;-80
2024/01/05 10:55:35;;;;;;;32.80;14.10;;;;;;;2.44;75.26;99770.58;681918;1265;139740;-79
2024/01/05 11:10:47;;;;;;;45.20;21.40;;;;;;;2.53;75.66;99771.27;681799;1264;140798;-79
2024/01/05 11:25:54;;;;;;;18.00;9.20;;;;;;;2.62;75.38;99780.18;681779;1265;140083;-80
2024/01/05 11:40:57;;;;;;;173.90;39.40;;;;;;;3.55;74.83;99787.83;681770;1265;139296;-80
2024/01/05 11:56:03;;;;;;;32.40;17.80;;;;;;;3.28;73.14;99792.54;681961;1263;139498;-79
2024/01/05 12:11:09;;;;;;;50.70;25.00;;;;;;;2.68;72.68;99808.95;681765;1265;139797;-79
2024/01/05 12:26:14;;;;;;;318.20;105.60;;;;;;;2.29;72.77;99805.88;681862;1265;22504;-79
2024/01/05 12:41:39;;;;;;;99.50;35.20;;;;;;;1.99;72.12;99816.08;682182;1265;22977;-79
2024/01/05 12:57:03;;;;;;;349.40;128.30;;;;;;;2.03;72.39;99827.23;682333;1265;22141;-79
2024/01/05 13:12:32;;;;;;;33.50;15.70;;;;;;;2.16;72.51;99830.98;682267;1265;22384;-80
2024/01/05 13:27:38;;;;;;;30.30;15.40;;;;;;;1.69;71.97;99827.69;682204;1265;22345;-79
2024/01/05 13:42:45;;;;;;;;;;;;;;;1.18;72.22;99820.63;682192;1265;22448;-78
2024/01/05 13:57:53;;;;;;;91.00;33.90;;;;;;;0.91;72.68;99816.27;682345;1265;125509;-78
2024/01/05 14:12:58;;;;;;;125.50;39.50;;;;;;;0.65;72.43;99813.89;682150;1265;139084;-78
2024/01/05 14:28:27;;;;;;;435.90;133.50;;;;;;;0.44;72.77;99815.18;681964;1265;140077;-79
2024/01/05 14:43:53;;;;;;;559.70;179.70;;;;;;;-0.09;72.28;99814.63;681998;1265;140152;-78
2024/01/05 14:58:59;;;;;;;963.30;289.40;;;;;;;-0.74;73.11;99816.83;682339;1265;139811;-79
2024/01/05 15:14:05;;;;;;;206.30;62.80;;;;;;;-1.11;73.71;99830.25;682249;1270;22891;-79
2024/01/05 15:29:11;;;;;;;1383.50;430.10;;;;;;;-1.35;74.02;99841.85;682105;1265;22128;-79
2024/01/05 15:44:34;;;;;;;527.20;143.90;;;;;;;-1.60;74.62;99840.38;682154;1265;22166;-79
2024/01/05 15:59:38;;;;;;;329.40;96.70;;;;;;;-1.95;74.87;99865.38;682305;1262;22976;-80
2024/01/05 16:14:47;;;;;;;118.80;38.30;;;;;;;-2.09;75.08;99871.80;682180;1265;141284;-79
2024/01/05 16:29:52;;;;;;;95.80;36.00;;;;;;;-2.18;75.33;99842.03;682012;1262;23547;-79
2024/01/05 16:44:55;;;;;;;496.90;150.10;;;;;;;-2.47;75.87;99847.83;682131;1265;22228;-79
2024/01/05 17:00:04;;;;;;;454.40;133.70;;;;;;;-2.46;76.83;99869.55;682076;1265;140576;-79
2024/01/05 17:15:28;;;;;;;164.90;51.60;;;;;;;-2.53;76.74;99881.64;681728;1266;141177;-79
2024/01/05 17:30:39;;;;;;;238.20;69.80;;;;;;;-2.51;76.74;99898.38;681905;1260;140003;-78
2024/01/05 17:45:43;;;;;;;354.70;93.90;;;;;;;-2.51;76.71;99899.90;681919;1265;141139;-79
2024/01/05 18:00:47;;;;;;;687.60;236.40;;;;;;;-2.51;76.99;99915.30;681941;1264;140277;-78
2024/01/05 18:15:53;;;;;;;895.80;326.00;;;;;;;-2.49;77.71;99921.42;681872;1265;140884;-79
2024/01/05 18:30:59;;;;;;;791.50;288.40;;;;;;;-2.34;78.24;99916.00;681990;1260;140977;-79
2024/01/05 18:46:03;;;;;;;967.70;349.20;;;;;;;-2.19;78.46;99916.61;681892;1264;140110;-78
2024/01/05 19:01:07;;;;;;;340.70;95.80;;;;;;;-2.03;78.94;99922.11;682015;1262;140415;-78
2024/01/05 19:16:12;;;;;;;479.90;125.80;;;;;;;-1.84;79.18;99911.19;681873;1262;140293;-79
2024/01/05 19:31:31;;;;;;;422.50;132.20;;;;;;;-1.47;79.46;99915.94;681700;1260;140232;-78
2024/01/05 19:46:37;;;;;;;336.00;111.60;;;;;;;-1.29;79.86;99930.27;681912;1262;139936;-78
2024/01/05 20:01:45;;;;;;;429.20;135.10;;;;;;;-1.16;80.36;99934.69;681840;1265;140824;-78
2024/01/05 20:17:12;;;;;;;506.30;174.20;;;;;;;-1.06;81.33;99918.41;681931;1277;141356;-79
2024/01/05 20:32:17;;;;;;;358.60;83.60;;;;;;;-1.01;80.71;99908.94;681823;1276;140302;-78
2024/01/05 20:47:21;;;;;;;134.10;38.70;;;;;;;-1.01;79.42;99935.19;682120;1262;141216;-78
2024/01/05 21:02:27;;;;;;;204.80;59.40;;;;;;;-0.75;79.20;99947.39;681870;1260;140620;-78
2024/01/05 21:17:32;;;;;;;450.50;139.30;;;;;;;-0.54;80.24;99963.96;681975;1260;139869;-79
2024/01/05 21:32:40;;;;;;;208.20;77.40;;;;;;;-0.49;80.59;99961.31;681893;1264;141277;-78
2024/01/05 21:47:44;;;;;;;140.40;43.50;;;;;;;-0.45;80.81;99954.27;681925;1263;140241;-78
2024/01/05 22:02:50;;;;;;;103.70;35.60;;;;;;;-0.83;80.14;99947.27;682023;1261;140059;-78
2024/01/05 22:17:55;;;;;;;94.20;33.80;;;;;;;-0.84;80.39;99933.89;681910;1261;139803;-79
2024/01/05 22:32:59;;;;;;;141.30;45.50;;;;;;;-0.77;80.33;99947.67;681798;1265;141053;-78
2024/01/05 22:48:03;;;;;;;85.50;26.50;;;;;;;-0.76;79.73;99948.33;681787;1262;140327;-78
2024/01/05 23:03:07;;;;;;;118.30;41.90;;;;;;;-0.59;79.99;99944.75;681744;1265;140416;-79
2024/01/05 23:18:12;;;;;;;128.50;44.80;;;;;;;-0.27;80.62;99947.91;681754;1262;140529;-80
2024/01/05 23:33:17;;;;;;;56.60;21.40;;;;;;;-0.22;79.94;99943.17;681755;1264;140052;-79
2024/01/05 23:48:21;;;;;;;60.00;20.60;;;;;;;-0.48;78.72;99932.73;681880;1262;140491;-79
